Time;durP1;ratioP1;P1;durP2;ratioP2;P2;SDS_P1;SDS_P2;PMS_P1;PMS_P2;Temp;Humidity;BMP_temperature;BMP_pressure;BME280_temperature;BME280_humidity;BME280_pressure;Samples;Min_cycle;Max_cycle;Signal;HPM_P1;HPM_P2
2022/01/27 00:05:35;;;;;;;33.30;15.50;;;7.50;62.40;;;;;;5094152;28;20562;-81
2022/01/27 00:13:14;;;;;;;34.47;16.58;;;7.50;62.30;;;;;;5104011;28;20383;-81
2022/01/27 00:15:46;;;;;;;35.30;16.23;;;7.80;61.40;;;;;;5074579;28;20471;-81
2022/01/27 00:18:21;;;;;;;31.25;15.73;;;8.00;60.90;;;;;;5077477;28;20455;-82
2022/01/27 00:20:48;;;;;;;30.75;14.65;;;8.40;59.80;;;;;;5077765;28;20055;-90
2022/01/27 00:23:15;;;;;;;29.90;15.70;;;8.50;58.80;;;;;;5077293;28;20367;-93
2022/01/27 00:25:41;;;;;;;31.13;15.50;;;8.20;60.30;;;;;;5096222;28;20446;-82
2022/01/27 00:28:06;;;;;;;31.23;15.40;;;8.30;59.60;;;;;;5079281;28;20474;-95
2022/01/27 00:30:37;;;;;;;32.63;15.40;;;8.30;59.40;;;;;;5079377;28;20039;-81
2022/01/27 00:33:03;;;;;;;32.63;14.77;;;7.80;60.70;;;;;;5076902;28;20119;-94
2022/01/27 00:35:30;;;;;;;33.38;16.25;;;7.90;60.60;;;;;;5074251;28;20066;-79
2022/01/27 00:37:56;;;;;;;31.83;15.45;;;8.40;59.80;;;;;;5074473;28;20454;-79
2022/01/27 00:40:22;;;;;;;33.10;16.20;;;8.60;58.40;;;;;;5111349;28;20020;-82
2022/01/27 00:42:50;;;;;;;32.65;16.05;;;8.40;59.80;;;;;;5094453;28;20366;-94
2022/01/27 00:45:16;;;;;;;32.78;16.30;;;8.70;59.30;;;;;;5112061;28;20028;-85
2022/01/27 00:47:41;;;;;;;32.40;16.17;;;8.90;57.90;;;;;;5094124;28;20415;-82
2022/01/27 00:50:07;;;;;;;34.33;16.02;;;8.70;58.30;;;;;;5077155;28;20020;-82
2022/01/27 00:52:41;;;;;;;31.08;15.40;;;7.80;60.70;;;;;;5076349;28;20450;-81
2022/01/27 00:55:08;;;;;;;30.45;16.65;;;8.00;60.50;;;;;;5058842;28;20059;-82
2022/01/27 00:57:56;;;;;;;35.17;16.70;;;8.20;59.80;;;;;;5094043;28;20028;-82
2022/01/27 01:00:32;;;;;;;34.90;16.42;;;8.00;60.00;;;;;;5111355;28;20052;-84
2022/01/27 01:03:11;;;;;;;32.88;16.58;;;7.80;60.90;;;;;;5083588;28;20028;-82
2022/01/27 01:16:08;;;;;;;32.67;15.73;;;7.60;60.80;;;;;;5085638;28;20063;-93
2022/01/27 01:31:51;;;;;;;31.98;15.55;;;8.40;58.80;;;;;;5079626;28;20434;-82
2022/01/27 01:34:22;;;;;;;33.92;15.98;;;7.80;60.20;;;;;;5060963;28;20024;-81
2022/01/27 01:36:58;;;;;;;30.17;15.23;;;7.40;61.40;;;;;;5060056;28;20024;-80
2022/01/27 01:39:27;;;;;;;30.02;14.75;;;7.30;61.70;;;;;;5089189;28;20070;-90
2022/01/27 01:41:53;;;;;;;30.60;14.90;;;7.40;61.50;;;;;;5079458;28;20032;-80
2022/01/27 01:44:20;;;;;;;30.13;15.05;;;7.30;61.60;;;;;;5059668;28;20024;-90
2022/01/27 01:46:46;;;;;;;29.20;15.43;;;7.60;60.90;;;;;;5060585;28;20052;-81
2022/01/27 01:49:12;;;;;;;27.67;14.75;;;7.70;60.60;;;;;;5067651;28;20028;-80
2022/01/27 01:51:40;;;;;;;28.50;14.52;;;7.60;60.90;;;;;;5080864;28;20096;-81
2022/01/27 01:54:06;;;;;;;28.52;13.63;;;7.90;60.30;;;;;;5097881;28;20028;-82
2022/01/27 01:56:35;;;;;;;31.42;16.40;;;7.70;59.90;;;;;;5097624;28;20034;-81
2022/01/27 01:59:55;;;;;;;29.80;14.85;;;7.50;59.70;;;;;;5076131;27;1411755;-89
2022/01/27 02:02:21;;;;;;;31.02;14.70;;;6.90;61.50;;;;;;5112665;28;20355;-90
2022/01/27 02:04:47;;;;;;;25.38;13.32;;;7.00;61.40;;;;;;5081217;28;20029;-91
2022/01/27 02:18:08;;;;;;;28.30;13.73;;;7.20;60.50;;;;;;5114205;28;20089;-80
2022/01/27 02:20:40;;;;;;;27.95;14.43;;;6.70;61.70;;;;;;5095054;28;20031;-79
2022/01/27 02:23:08;;;;;;;26.65;13.70;;;6.70;62.10;;;;;;5097006;28;20028;-79
2022/01/27 02:25:36;;;;;;;27.98;13.70;;;6.90;61.50;;;;;;5104281;28;20021;-80
2022/01/27 02:28:02;;;;;;;25.40;12.93;;;7.20;60.90;;;;;;5074355;28;20024;-80
2022/01/27 02:30:29;;;;;;;27.88;13.88;;;7.40;60.10;;;;;;5092235;28;20382;-80
2022/01/27 02:32:55;;;;;;;32.35;13.93;;;7.40;59.70;;;;;;5073391;28;20119;-82
2022/01/27 02:36:54;;;;;;;26.08;13.02;;;7.10;60.30;;;;;;5079319;27;1638421;-82
2022/01/27 02:39:20;;;;;;;25.73;13.45;;;7.00;60.50;;;;;;5095503;28;20028;-84
2022/01/27 02:42:06;;;;;;;29.10;14.43;;;6.80;61.00;;;;;;5094414;28;20047;-93
2022/01/27 02:44:31;;;;;;;29.33;13.65;;;6.60;61.80;;;;;;5094582;28;20042;-92
2022/01/27 02:46:58;;;;;;;28.95;14.93;;;6.80;61.50;;;;;;5077345;28;20021;-90
2022/01/27 02:49:25;;;;;;;27.38;14.48;;;6.80;61.40;;;;;;5074755;28;20039;-80
2022/01/27 02:51:52;;;;;;;25.98;13.85;;;7.00;61.20;;;;;;5092790;28;20020;-80
2022/01/27 02:54:18;;;;;;;28.27;14.88;;;7.20;60.60;;;;;;5093511;28;20024;-79
2022/01/27 02:56:47;;;;;;;30.42;16.20;;;7.60;59.60;;;;;;5106804;28;20032;-79
2022/01/27 02:59:17;;;;;;;28.77;14.80;;;7.40;59.60;;;;;;5072414;28;20028;-79
2022/01/27 03:01:49;;;;;;;26.23;14.00;;;7.50;59.60;;;;;;5074049;28;20035;-82
2022/01/27 03:04:16;;;;;;;28.42;15.13;;;7.40;59.50;;;;;;5073583;28;20039;-86
2022/01/27 03:06:43;;;;;;;30.20;15.65;;;7.20;60.00;;;;;;5088549;28;20464;-83
2022/01/27 03:09:09;;;;;;;27.20;14.88;;;6.80;60.80;;;;;;5094416;28;20462;-80
2022/01/27 03:11:44;;;;;;;29.13;15.60;;;7.10;60.70;;;;;;5112239;28;20016;-79
2022/01/27 03:14:11;;;;;;;28.05;15.02;;;7.60;59.60;;;;;;5086937;28;20030;-90
2022/01/27 03:16:37;;;;;;;26.30;14.00;;;7.30;59.80;;;;;;5092054;28;20082;-84
2022/01/27 03:19:03;;;;;;;31.35;14.70;;;7.40;59.00;;;;;;5073948;28;20115;-92
2022/01/27 03:21:29;;;;;;;30.08;15.38;;;7.00;59.90;;;;;;5074059;28;20093;-80
2022/01/27 03:23:55;;;;;;;25.98;13.98;;;7.20;60.00;;;;;;5077435;28;20024;-78
2022/01/27 03:26:22;;;;;;;27.60;14.73;;;7.20;59.70;;;;;;5093422;28;20089;-81
2022/01/27 03:28:48;;;;;;;29.02;15.02;;;7.30;59.00;;;;;;5111571;28;20069;-79
2022/01/27 03:31:14;;;;;;;28.83;15.63;;;7.30;59.80;;;;;;5093974;28;20398;-79
2022/01/27 03:33:41;;;;;;;28.55;14.85;;;7.30;60.10;;;;;;5090335;28;20143;-78
2022/01/27 03:36:07;;;;;;;28.75;16.25;;;7.30;59.90;;;;;;5091285;28;20075;-83
2022/01/27 03:38:33;;;;;;;33.30;15.48;;;7.30;60.40;;;;;;5097658;28;20449;-81
2022/01/27 03:41:07;;;;;;;28.58;14.77;;;7.00;59.90;;;;;;5091940;28;20081;-82
2022/01/27 03:43:35;;;;;;;30.50;15.73;;;7.10;60.40;;;;;;5073937;28;20024;-82
2022/01/27 03:46:01;;;;;;;32.60;15.80;;;6.60;60.60;;;;;;5073620;28;20504;-81
2022/01/27 03:48:28;;;;;;;31.05;15.88;;;6.70;61.00;;;;;;5058874;28;20027;-78
2022/01/27 03:52:15;;;;;;;28.65;15.23;;;7.40;59.60;;;;;;5087519;27;1415065;-79
2022/01/27 03:54:41;;;;;;;31.05;15.38;;;7.60;59.30;;;;;;5095063;28;20115;-83
2022/01/27 03:57:07;;;;;;;27.15;14.55;;;7.50;59.30;;;;;;5105630;28;20110;-81
2022/01/27 03:59:32;;;;;;;29.38;15.65;;;7.30;59.60;;;;;;5094593;28;20024;-90
2022/01/27 04:01:58;;;;;;;29.15;15.45;;;7.30;59.50;;;;;;5087009;28;20028;-87
2022/01/27 04:04:25;;;;;;;28.60;14.85;;;7.30;59.50;;;;;;5086879;28;20031;-92
2022/01/27 04:06:52;;;;;;;31.15;15.73;;;7.50;59.30;;;;;;5094259;28;20028;-79
2022/01/27 04:09:19;;;;;;;28.45;16.10;;;7.60;59.00;;;;;;5094791;28;20024;-80
2022/01/27 04:11:44;;;;;;;30.38;15.48;;;7.60;58.50;;;;;;5094005;28;20032;-79
2022/01/27 04:14:10;;;;;;;27.77;14.75;;;7.20;59.70;;;;;;5104325;28;20095;-80
2022/01/27 04:16:37;;;;;;;28.77;15.45;;;7.00;60.10;;;;;;5082314;28;20058;-87
2022/01/27 04:19:03;;;;;;;29.52;15.98;;;7.00;59.80;;;;;;5112704;28;20024;-79
2022/01/27 04:21:29;;;;;;;30.77;15.60;;;7.30;59.80;;;;;;5093006;28;20445;-78
2022/01/27 04:23:55;;;;;;;29.38;16.23;;;7.50;59.40;;;;;;5112885;28;20516;-78
2022/01/27 04:26:26;;;;;;;30.75;15.02;;;7.40;58.90;;;;;;5112300;28;20073;-79
2022/01/27 04:28:53;;;;;;;28.20;14.90;;;7.70;58.80;;;;;;5086792;28;20047;-86
2022/01/27 04:31:20;;;;;;;31.95;15.95;;;7.70;58.30;;;;;;5073874;28;20040;-80
2022/01/27 04:33:45;;;;;;;27.33;14.63;;;7.30;59.20;;;;;;5080699;28;20438;-79
2022/01/27 04:36:20;;;;;;;29.80;14.88;;;6.90;59.80;;;;;;5093283;28;20577;-79
2022/01/27 04:39:06;;;;;;;28.02;15.25;;;7.30;59.00;;;;;;5073668;28;20056;-79
2022/01/27 04:41:42;;;;;;;29.08;14.82;;;7.30;59.30;;;;;;5074716;28;20429;-85
2022/01/27 04:46:50;;;;;;;27.40;14.45;;;7.50;58.70;;;;;;5094276;28;20020;-82
2022/01/27 04:49:16;;;;;;;28.38;15.02;;;7.60;58.50;;;;;;5073451;28;20075;-81
2022/01/27 04:51:43;;;;;;;25.33;13.90;;;7.50;58.10;;;;;;5075173;28;20079;-80
2022/01/27 04:54:23;;;;;;;27.55;15.05;;;7.60;58.10;;;;;;5074930;28;20028;-80
2022/01/27 04:56:49;;;;;;;27.20;14.57;;;7.90;57.50;;;;;;5085312;28;20027;-80
2022/01/27 04:59:25;;;;;;;26.10;14.90;;;7.80;57.70;;;;;;5094165;28;20024;-79
2022/01/27 05:01:58;;;;;;;30.95;15.13;;;7.40;58.20;;;;;;5077277;28;20031;-79
2022/01/27 05:04:29;;;;;;;28.40;15.18;;;7.50;58.20;;;;;;5061295;28;20121;-79
2022/01/27 05:06:55;;;;;;;28.60;15.30;;;7.80;57.80;;;;;;5060448;28;20032;-89
2022/01/27 05:09:22;;;;;;;27.70;15.55;;;7.90;57.00;;;;;;5060411;28;20021;-80
2022/01/27 05:11:53;;;;;;;25.80;14.70;;;7.40;58.30;;;;;;5073929;28;20032;-81
2022/01/27 05:14:28;;;;;;;31.17;14.93;;;7.50;58.30;;;;;;5081799;28;20028;-81
2022/01/27 05:16:53;;;;;;;29.08;15.68;;;7.60;58.30;;;;;;5097859;28;20398;-94
2022/01/27 05:19:20;;;;;;;30.58;15.45;;;7.40;58.30;;;;;;5096253;28;20111;-93
2022/01/27 05:21:46;;;;;;;28.55;15.38;;;7.30;58.90;;;;;;5068049;28;20459;-88
2022/01/27 05:24:13;;;;;;;29.83;15.77;;;7.40;58.50;;;;;;5098295;28;20024;-91
2022/01/27 05:26:39;;;;;;;30.55;15.60;;;7.50;58.70;;;;;;5070268;28;20032;-85
2022/01/27 05:29:08;;;;;;;29.90;15.68;;;7.60;58.40;;;;;;5061665;28;20039;-93
2022/01/27 05:31:35;;;;;;;28.43;15.47;;;7.60;58.10;;;;;;5079160;28;20028;-82
2022/01/27 05:34:00;;;;;;;28.70;14.85;;;7.60;58.40;;;;;;5078025;28;20517;-93
2022/01/27 05:36:26;;;;;;;28.08;15.15;;;7.70;57.90;;;;;;5077634;28;20032;-78
2022/01/27 05:38:52;;;;;;;28.33;15.23;;;7.70;58.20;;;;;;5083292;28;20082;-89
2022/01/27 05:41:17;;;;;;;28.92;15.38;;;7.80;57.50;;;;;;5078730;28;20479;-94
2022/01/27 05:43:44;;;;;;;26.15;14.63;;;7.80;57.90;;;;;;5078258;28;20379;-80
2022/01/27 05:46:10;;;;;;;30.13;15.93;;;7.70;57.80;;;;;;5081711;28;20112;-77
2022/01/27 05:48:36;;;;;;;27.70;15.65;;;7.70;57.90;;;;;;5070640;28;20035;-89
2022/01/27 05:51:02;;;;;;;28.50;15.73;;;7.50;58.00;;;;;;5080268;28;20048;-82
2022/01/27 05:53:30;;;;;;;30.02;15.82;;;7.80;57.90;;;;;;5064175;28;20052;-83
2022/01/27 05:55:56;;;;;;;29.00;15.73;;;7.80;57.80;;;;;;5087371;28;20032;-93
2022/01/27 05:58:22;;;;;;;36.28;17.45;;;7.60;57.90;;;;;;5059614;28;20021;-78
2022/01/27 06:00:48;;;;;;;30.52;15.95;;;7.00;59.20;;;;;;5059134;28;20109;-78
2022/01/27 06:03:14;;;;;;;38.92;20.55;;;7.10;59.50;;;;;;5077266;28;20032;-80
2022/01/27 06:05:40;;;;;;;27.50;14.85;;;7.30;59.00;;;;;;5059002;28;20052;-82
2022/01/27 06:08:05;;;;;;;37.13;18.52;;;7.50;58.60;;;;;;5076533;28;20498;-80
2022/01/27 06:10:31;;;;;;;37.47;18.27;;;7.20;58.60;;;;;;5066327;28;20038;-82
2022/01/27 06:12:57;;;;;;;32.88;17.38;;;7.20;59.50;;;;;;5096872;28;20491;-81
2022/01/27 06:15:27;;;;;;;30.55;16.25;;;7.60;58.30;;;;;;5089219;28;20076;-81
2022/01/27 06:17:53;;;;;;;29.35;16.42;;;7.50;58.20;;;;;;5076909;28;20471;-81
2022/01/27 06:20:19;;;;;;;32.38;16.75;;;7.20;58.80;;;;;;5058846;28;20029;-88
2022/01/27 06:22:46;;;;;;;29.60;15.70;;;6.80;60.00;;;;;;5068985;28;20025;-80
2022/01/27 06:25:14;;;;;;;29.98;15.95;;;6.70;60.20;;;;;;5082062;28;20025;-81
2022/01/27 06:27:40;;;;;;;32.83;17.15;;;6.90;60.60;;;;;;5059091;28;20032;-79
2022/01/27 06:30:08;;;;;;;33.00;17.10;;;7.30;59.20;;;;;;5074823;28;20017;-80
2022/01/27 06:32:34;;;;;;;27.38;15.57;;;7.30;59.10;;;;;;5077781;28;20410;-80
2022/01/27 06:35:03;;;;;;;32.63;17.30;;;7.40;58.80;;;;;;5071399;28;20016;-78
2022/01/27 06:37:30;;;;;;;29.70;16.77;;;7.30;59.20;;;;;;5091577;28;20024;-79
2022/01/27 06:39:56;;;;;;;30.00;16.23;;;7.50;58.90;;;;;;5056494;28;20021;-80
2022/01/27 06:42:22;;;;;;;28.63;15.95;;;7.30;58.70;;;;;;5059072;28;20115;-79
2022/01/27 06:44:48;;;;;;;34.97;18.45;;;7.30;59.10;;;;;;5091328;28;20459;-79
2022/01/27 06:47:14;;;;;;;28.45;16.50;;;7.20;59.40;;;;;;5075975;28;20033;-80
2022/01/27 06:49:39;;;;;;;30.08;16.60;;;7.10;59.10;;;;;;5094403;28;20024;-80
2022/01/27 06:54:57;;;;;;;29.63;15.40;;;7.30;59.40;;;;;;5075739;28;20086;-87
2022/01/27 06:57:24;;;;;;;28.85;14.93;;;7.40;59.90;;;;;;5075025;28;20025;-88
2022/01/27 06:59:50;;;;;;;29.33;15.70;;;7.80;58.60;;;;;;5057302;28;20105;-81
2022/01/27 07:02:16;;;;;;;32.72;16.98;;;7.90;58.30;;;;;;5061958;28;20121;-80
2022/01/27 07:04:41;;;;;;;29.60;15.93;;;8.30;57.30;;;;;;5057173;28;20024;-86
2022/01/27 07:07:07;;;;;;;29.88;16.02;;;8.20;57.00;;;;;;5058912;28;20197;-79
2022/01/27 07:09:33;;;;;;;30.38;16.00;;;7.60;58.40;;;;;;5074669;28;20035;-79
2022/01/27 07:11:58;;;;;;;29.98;15.98;;;7.60;58.70;;;;;;5057013;28;20483;-79
2022/01/27 07:14:24;;;;;;;32.88;17.05;;;7.70;57.80;;;;;;5056618;28;20021;-79
2022/01/27 07:16:50;;;;;;;28.92;17.15;;;7.80;58.50;;;;;;5055298;28;20356;-79
2022/01/27 07:19:16;;;;;;;31.60;16.65;;;7.80;58.40;;;;;;5055451;28;20103;-80
2022/01/27 07:21:42;;;;;;;31.58;16.65;;;7.80;58.10;;;;;;5056121;28;20451;-79
2022/01/27 07:24:07;;;;;;;29.63;15.77;;;7.80;58.50;;;;;;5056029;28;20025;-80
2022/01/27 07:26:33;;;;;;;29.33;15.73;;;7.90;57.80;;;;;;5056432;28;20498;-79
2022/01/27 07:28:59;;;;;;;34.75;18.00;;;8.20;57.30;;;;;;5074223;28;20017;-80
2022/01/27 07:31:25;;;;;;;32.28;17.17;;;7.50;58.40;;;;;;5056516;28;20220;-80
2022/01/27 07:33:52;;;;;;;36.67;19.67;;;7.60;59.20;;;;;;5056346;28;20029;-79
2022/01/27 07:36:19;;;;;;;31.50;16.23;;;7.70;58.60;;;;;;5056378;28;20391;-80
2022/01/27 07:38:46;;;;;;;31.00;16.23;;;8.00;58.00;;;;;;5074202;28;20107;-81
2022/01/27 07:41:16;;;;;;;31.45;17.65;;;7.90;58.00;;;;;;5074269;28;20360;-80
2022/01/27 07:43:42;;;;;;;28.20;15.10;;;7.60;58.60;;;;;;5056455;28;20031;-79
2022/01/27 07:46:11;;;;;;;29.75;16.88;;;8.10;57.50;;;;;;5056052;28;20099;-80
2022/01/27 07:48:37;;;;;;;31.40;18.50;;;7.70;58.50;;;;;;5056347;28;20020;-80
2022/01/27 07:51:04;;;;;;;36.95;18.55;;;8.10;57.80;;;;;;5073686;28;20098;-80
2022/01/27 07:53:30;;;;;;;29.83;16.10;;;8.20;57.40;;;;;;5056292;28;20467;-80
2022/01/27 07:55:56;;;;;;;36.85;20.08;;;8.20;56.90;;;;;;5073499;28;20044;-80
2022/01/27 07:58:22;;;;;;;50.78;25.33;;;8.20;57.50;;;;;;5074063;28;20017;-80
2022/01/27 08:00:47;;;;;;;43.33;23.95;;;8.70;56.70;;;;;;5055742;28;20037;-79
2022/01/27 08:05:45;;;;;;;29.70;16.58;;;9.00;55.10;;;;;;5086258;27;1406501;-79
2022/01/27 08:08:11;;;;;;;31.83;17.58;;;8.70;56.30;;;;;;5093863;28;20032;-80
2022/01/27 08:10:38;;;;;;;31.23;16.15;;;8.70;56.40;;;;;;5093467;28;20119;-80
2022/01/27 08:13:09;;;;;;;29.58;15.82;;;9.00;55.90;;;;;;5112247;28;20486;-79
2022/01/27 08:15:35;;;;;;;28.48;16.23;;;8.70;56.10;;;;;;5093552;28;20038;-80
2022/01/27 08:18:02;;;;;;;34.92;16.42;;;8.70;56.70;;;;;;5111943;28;20027;-81
2022/01/27 08:20:28;;;;;;;30.40;16.33;;;8.80;56.50;;;;;;5093934;28;20081;-78
2022/01/27 08:22:55;;;;;;;29.38;16.08;;;8.80;56.00;;;;;;5111086;28;20031;-80
2022/01/27 08:25:23;;;;;;;32.50;16.42;;;8.80;56.30;;;;;;5112143;28;20123;-80
2022/01/27 08:27:52;;;;;;;29.98;15.52;;;8.60;56.80;;;;;;5093432;28;20036;-80
2022/01/27 08:30:19;;;;;;;30.98;16.90;;;8.10;57.60;;;;;;5093354;28;20039;-79
2022/01/27 08:33:29;;;;;;;29.50;16.42;;;8.20;57.60;;;;;;5111503;28;20018;-79
2022/01/27 08:35:34;;;;;;;24.92;14.27;;;8.30;57.40;;;;;;5100485;28;20036;-79
2022/01/27 08:38:00;;;;;;;31.00;15.80;;;8.60;56.90;;;;;;5111438;28;20024;-79
2022/01/27 08:40:26;;;;;;;29.38;16.23;;;8.60;57.10;;;;;;5093379;28;20470;-79
2022/01/27 08:42:52;;;;;;;35.85;18.55;;;8.70;57.10;;;;;;5111336;28;20467;-81
2022/01/27 08:45:21;;;;;;;31.13;16.23;;;9.10;56.00;;;;;;5093341;28;20047;-78
2022/01/27 08:47:48;;;;;;;29.70;15.85;;;9.00;55.90;;;;;;5093145;28;20028;-79
2022/01/27 08:50:20;;;;;;;30.10;16.42;;;9.10;56.20;;;;;;5111294;28;20437;-79
2022/01/27 08:52:45;;;;;;;29.92;16.20;;;9.00;55.80;;;;;;5093402;28;20462;-81
2022/01/27 08:55:11;;;;;;;28.55;15.73;;;8.70;56.60;;;;;;5093043;28;20028;-79
2022/01/27 08:57:37;;;;;;;30.02;15.75;;;8.50;57.00;;;;;;5093470;28;20089;-79
2022/01/27 09:00:09;;;;;;;28.83;16.63;;;8.60;56.50;;;;;;5092731;28;20390;-79
2022/01/27 09:02:35;;;;;;;26.80;15.20;;;9.00;56.80;;;;;;5092316;28;20039;-79
2022/01/27 09:05:01;;;;;;;27.48;15.80;;;9.10;55.50;;;;;;5092192;28;20425;-79
2022/01/27 09:07:27;;;;;;;28.75;15.90;;;9.20;55.80;;;;;;5092836;28;20487;-79
2022/01/27 09:09:52;;;;;;;26.52;15.63;;;9.40;55.10;;;;;;5092752;28;20057;-88
2022/01/27 09:12:18;;;;;;;30.30;16.25;;;9.50;55.00;;;;;;5092839;28;20028;-79
2022/01/27 09:14:44;;;;;;;27.83;15.80;;;9.80;54.30;;;;;;5110886;28;20510;-79
2022/01/27 09:17:11;;;;;;;29.05;15.98;;;9.70;54.70;;;;;;5097034;28;20017;-79
2022/01/27 09:19:39;;;;;;;30.13;15.98;;;9.80;54.40;;;;;;5078948;28;20424;-80
2022/01/27 09:22:12;;;;;;;32.90;17.40;;;10.00;54.20;;;;;;5096896;28;20023;-80
2022/01/27 09:24:53;;;;;;;32.33;17.75;;;10.30;53.00;;;;;;5078921;28;20044;-79
2022/01/27 09:27:19;;;;;;;35.58;17.80;;;10.30;53.30;;;;;;5096827;28;20017;-79
2022/01/27 09:29:48;;;;;;;28.85;16.65;;;10.30;53.20;;;;;;5079142;28;20028;-80
2022/01/27 09:32:15;;;;;;;31.38;17.05;;;10.20;52.90;;;;;;5078597;28;20020;-79
2022/01/27 09:34:43;;;;;;;31.15;15.90;;;10.20;53.20;;;;;;5078605;28;20031;-79
2022/01/27 09:37:09;;;;;;;29.50;15.00;;;10.00;53.10;;;;;;5078891;28;20120;-79
2022/01/27 09:39:35;;;;;;;30.50;16.17;;;10.10;53.60;;;;;;5078485;28;20055;-79
2022/01/27 09:42:04;;;;;;;32.53;17.42;;;9.60;54.20;;;;;;5078463;28;20017;-79
2022/01/27 09:44:32;;;;;;;31.92;17.20;;;9.80;54.50;;;;;;5077915;28;20036;-79
2022/01/27 09:47:01;;;;;;;30.13;16.58;;;10.20;53.30;;;;;;5078603;28;20466;-79
2022/01/27 09:52:10;;;;;;;31.75;17.85;;;10.30;52.40;;;;;;5097043;28;20031;-79
2022/01/27 09:54:36;;;;;;;201.07;81.80;;;9.70;54.10;;;;;;5078015;28;20028;-80
2022/01/27 09:57:04;;;;;;;71.20;36.75;;;9.40;54.60;;;;;;5096313;28;20016;-78
2022/01/27 09:59:29;;;;;;;37.30;19.58;;;9.70;54.20;;;;;;5078041;28;20028;-89
2022/01/27 10:02:07;;;;;;;34.63;19.00;;;9.80;53.50;;;;;;5096614;28;20379;-90
2022/01/27 10:04:52;;;;;;;36.42;19.52;;;9.30;54.10;;;;;;5095908;28;20478;-79
2022/01/27 10:07:24;;;;;;;29.88;15.98;;;8.20;56.00;;;;;;5078246;28;20032;-80
2022/01/27 10:10:15;;;;;;;34.75;17.17;;;8.20;57.30;;;;;;5096556;28;20032;-79
2022/01/27 10:12:46;;;;;;;33.78;17.38;;;8.90;56.10;;;;;;5078279;28;20067;-79
2022/01/27 10:15:18;;;;;;;29.98;16.25;;;9.30;55.60;;;;;;5078171;28;20016;-79
2022/01/27 10:18:16;;;;;;;29.77;16.15;;;9.80;54.20;;;;;;5078104;28;20058;-79
2022/01/27 10:20:59;;;;;;;28.50;15.75;;;9.50;53.80;;;;;;5077736;28;20050;-79
2022/01/27 10:23:30;;;;;;;30.58;16.30;;;8.60;55.40;;;;;;5077822;28;20062;-79
2022/01/27 10:26:07;;;;;;;40.53;21.50;;;8.50;56.80;;;;;;5077632;28;20031;-79
2022/01/27 10:28:49;;;;;;;30.90;15.70;;;8.90;55.60;;;;;;5076685;28;20024;-79
2022/01/27 10:31:21;;;;;;;27.42;13.80;;;9.20;54.60;;;;;;5096069;28;20028;-82
2022/01/27 10:33:59;;;;;;;29.52;15.40;;;9.10;54.30;;;;;;5095839;28;20386;-79
2022/01/27 10:36:26;;;;;;;28.77;15.27;;;8.70;55.60;;;;;;5077603;28;20462;-79
2022/01/27 10:38:58;;;;;;;27.23;15.13;;;8.40;55.50;;;;;;5077291;28;20093;-79
2022/01/27 10:41:29;;;;;;;24.50;13.75;;;8.70;55.60;;;;;;5077577;28;20020;-80
2022/01/27 10:44:11;;;;;;;24.90;13.38;;;8.70;55.00;;;;;;5095109;28;20035;-79
2022/01/27 10:46:45;;;;;;;24.10;12.73;;;9.10;54.60;;;;;;5077331;28;20032;-79
2022/01/27 10:49:20;;;;;;;22.90;11.73;;;9.80;53.00;;;;;;5077258;28;20021;-79
2022/01/27 10:51:52;;;;;;;22.65;12.45;;;9.70;52.50;;;;;;5077349;28;20028;-79
2022/01/27 10:54:49;;;;;;;20.73;11.30;;;9.30;54.00;;;;;;5076863;28;20036;-79
2022/01/27 10:57:16;;;;;;;19.10;10.70;;;9.00;53.80;;;;;;5077258;28;20031;-79
2022/01/27 10:59:42;;;;;;;17.65;10.07;;;8.90;54.40;;;;;;5094899;28;20048;-80
2022/01/27 11:02:10;;;;;;;17.00;9.30;;;8.60;54.60;;;;;;5095459;28;20016;-79
2022/01/27 11:04:43;;;;;;;18.83;10.48;;;9.10;54.70;;;;;;5076615;28;20036;-80
2022/01/27 11:07:12;;;;;;;19.70;11.13;;;10.10;53.00;;;;;;5076423;28;20039;-80
2022/01/27 11:09:44;;;;;;;19.27;11.48;;;10.60;51.90;;;;;;5077158;28;20123;-81
2022/01/27 11:12:18;;;;;;;20.48;11.60;;;10.80;51.00;;;;;;5076873;28;20029;-79
2022/01/27 11:14:49;;;;;;;22.33;14.15;;;10.60;51.20;;;;;;5076894;28;20417;-79
2022/01/27 11:17:19;;;;;;;18.42;10.48;;;11.00;51.20;;;;;;5094722;28;20036;-79
2022/01/27 11:25:10;;;;;;;23.60;12.75;;;10.20;52.20;;;;;;5095222;28;20074;-79
2022/01/27 11:27:38;;;;;;;24.45;13.38;;;10.10;52.50;;;;;;5094688;28;20016;-80
2022/01/27 11:30:13;;;;;;;24.35;13.68;;;10.20;52.90;;;;;;5095218;28;20107;-80
2022/01/27 11:32:51;;;;;;;21.65;11.85;;;10.60;51.40;;;;;;5076163;28;20449;-78
2022/01/27 11:35:17;;;;;;;25.20;14.20;;;9.90;51.80;;;;;;5076619;28;20020;-79
2022/01/27 11:37:50;;;;;;;31.63;17.27;;;9.60;53.00;;;;;;5094452;28;20062;-79
2022/01/27 11:40:17;;;;;;;29.63;16.42;;;9.40;53.80;;;;;;5076046;28;20531;-80
2022/01/27 11:43:02;;;;;;;24.75;13.70;;;9.80;53.40;;;;;;5076540;28;20367;-79
2022/01/27 11:45:31;;;;;;;23.08;13.05;;;9.60;53.30;;;;;;5094385;28;20055;-79
2022/01/27 11:48:08;;;;;;;25.30;13.55;;;9.30;53.70;;;;;;5076608;28;20052;-78
2022/01/27 11:50:53;;;;;;;27.33;14.18;;;9.20;53.70;;;;;;5076104;28;20487;-79
2022/01/27 11:53:40;;;;;;;27.13;15.80;;;8.90;54.90;;;;;;5076681;28;20024;-81
2022/01/27 11:56:15;;;;;;;30.35;16.25;;;9.10;54.80;;;;;;5094276;28;20501;-80
2022/01/27 11:58:49;;;;;;;24.85;14.02;;;9.60;53.60;;;;;;5094298;28;20028;-79
2022/01/27 12:01:24;;;;;;;26.05;16.38;;;9.60;53.40;;;;;;5094394;28;20095;-79
2022/01/27 12:04:07;;;;;;;27.10;14.50;;;9.60;53.20;;;;;;5076288;28;20486;-78
2022/01/27 12:06:48;;;;;;;26.15;14.23;;;9.50;53.30;;;;;;5075925;28;20044;-79
2022/01/27 12:09:20;;;;;;;37.92;22.67;;;9.30;53.40;;;;;;5094237;28;20035;-79
2022/01/27 12:11:58;;;;;;;36.08;21.90;;;9.10;54.20;;;;;;5094443;28;20020;-78
2022/01/27 12:14:47;;;;;;;39.38;22.33;;;8.80;54.80;;;;;;5094222;28;20052;-82
2022/01/27 12:17:13;;;;;;;29.25;16.17;;;9.30;54.20;;;;;;5093957;28;20016;-80
2022/01/27 12:19:52;;;;;;;29.77;15.55;;;9.70;53.20;;;;;;5076169;28;20031;-79
2022/01/27 12:22:19;;;;;;;26.40;14.48;;;10.40;53.00;;;;;;5076133;28;20417;-79
2022/01/27 12:25:12;;;;;;;28.75;17.58;;;10.50;51.70;;;;;;5093940;28;20509;-79
2022/01/27 12:27:39;;;;;;;30.65;16.02;;;10.50;51.80;;;;;;5090572;28;20028;-81
2022/01/27 12:30:09;;;;;;;33.85;18.40;;;10.90;51.30;;;;;;5093575;28;20047;-79
2022/01/27 12:32:35;;;;;;;29.80;15.32;;;10.70;51.30;;;;;;5094101;28;20027;-79
2022/01/27 12:35:03;;;;;;;46.08;23.25;;;10.20;52.10;;;;;;5075581;28;20032;-81
2022/01/27 12:37:37;;;;;;;39.40;19.25;;;10.30;52.50;;;;;;5075937;28;20064;-79
2022/01/27 12:40:19;;;;;;;42.13;21.10;;;10.50;52.40;;;;;;5075973;28;20108;-79
2022/01/27 12:43:01;;;;;;;36.30;21.48;;;10.80;52.00;;;;;;5075810;28;20024;-79
2022/01/27 12:45:30;;;;;;;38.47;22.58;;;11.30;50.70;;;;;;5075653;28;20036;-79
2022/01/27 12:48:04;;;;;;;33.10;18.75;;;11.90;50.30;;;;;;5075732;28;20082;-79
2022/01/27 12:50:30;;;;;;;26.73;15.25;;;12.40;49.10;;;;;;5094220;28;20016;-79
2022/01/27 12:53:00;;;;;;;30.00;18.60;;;12.10;49.10;;;;;;5079112;28;20031;-78
2022/01/27 12:55:33;;;;;;;26.35;15.25;;;11.90;50.10;;;;;;5079754;28;20081;-79
2022/01/27 12:58:02;;;;;;;27.33;16.00;;;11.50;50.30;;;;;;5079247;28;20024;-78
2022/01/27 13:00:35;;;;;;;29.80;16.63;;;11.40;50.70;;;;;;5097776;28;20047;-79
2022/01/27 13:03:01;;;;;;;29.23;16.48;;;11.60;50.40;;;;;;5097134;28;20100;-79
2022/01/27 13:05:49;;;;;;;27.88;16.00;;;11.70;50.40;;;;;;5079474;28;20097;-78
2022/01/27 13:08:22;;;;;;;24.85;14.45;;;11.40;50.20;;;;;;5097436;28;20016;-87
2022/01/27 13:10:58;;;;;;;27.23;15.18;;;11.10;51.20;;;;;;5079445;28;20039;-78
2022/01/27 13:13:27;;;;;;;31.73;17.10;;;11.10;50.80;;;;;;5079308;28;20074;-79
2022/01/27 13:16:03;;;;;;;30.02;16.08;;;11.00;51.60;;;;;;5097056;28;20374;-79
2022/01/27 13:18:37;;;;;;;27.35;14.23;;;11.20;51.70;;;;;;5097545;28;20019;-93
2022/01/27 13:21:05;;;;;;;26.63;14.88;;;11.60;50.90;;;;;;5078650;28;20032;-79
2022/01/27 13:26:02;;;;;;;27.60;14.93;;;12.00;50.10;;;;;;5097674;28;20433;-81
2022/01/27 13:28:35;;;;;;;28.38;15.10;;;12.50;49.50;;;;;;5078956;28;20051;-78
2022/01/27 13:31:03;;;;;;;29.38;16.45;;;12.30;49.20;;;;;;5097217;28;20532;-78
2022/01/27 13:33:41;;;;;;;25.02;14.75;;;12.10;49.80;;;;;;5078120;28;20031;-84
2022/01/27 13:36:11;;;;;;;29.33;15.98;;;11.90;49.90;;;;;;5078716;28;20050;-79
2022/01/27 13:38:49;;;;;;;30.65;16.75;;;11.90;50.70;;;;;;5078894;28;20020;-80
2022/01/27 13:41:20;;;;;;;42.55;23.02;;;11.80;50.40;;;;;;5078559;28;20032;-79
2022/01/27 13:43:48;;;;;;;29.65;16.63;;;11.90;50.50;;;;;;5096508;28;20016;-79
2022/01/27 13:46:37;;;;;;;33.78;18.42;;;11.90;50.80;;;;;;5078873;28;20123;-79
2022/01/27 13:49:11;;;;;;;35.55;18.50;;;11.60;51.20;;;;;;5078757;28;20035;-81
2022/01/27 13:51:51;;;;;;;33.55;17.98;;;11.50;50.80;;;;;;5078431;28;20036;-79
2022/01/27 13:54:23;;;;;;;30.55;17.50;;;11.10;51.80;;;;;;5078465;28;20032;-79